sensor_id;sensor_type;location;lat;lon;timestamp;temperature;humidity
12604;DHT22;6367;52.508;13.284;2024-03-17T00:00:05;10.30;95.50
12604;DHT22;6367;52.508;13.284;2024-03-17T00:02:32;10.10;95.50
12604;DHT22;6367;52.508;13.284;2024-03-17T00:04:57;10.30;95.70
12604;DHT22;6367;52.508;13.284;2024-03-17T00:07:23;10.40;95.70
12604;DHT22;6367;52.508;13.284;2024-03-17T00:09:51;10.30;95.70
12604;DHT22;6367;52.508;13.284;2024-03-17T00:12:17;10.30;95.70
12604;DHT22;6367;52.508;13.284;2024-03-17T00:14:42;10.30;95.80
12604;DHT22;6367;52.508;13.284;2024-03-17T00:17:08;10.30;95.90
12604;DHT22;6367;52.508;13.284;2024-03-17T00:19:34;10.20;95.90
12604;DHT22;6367;52.508;13.284;2024-03-17T00:21:59;10.20;96.00
12604;DHT22;6367;52.508;13.284;2024-03-17T00:24:25;10.30;95.90
12604;DHT22;6367;52.508;13.284;2024-03-17T00:26:51;10.20;96.00
12604;DHT22;6367;52.508;13.284;2024-03-17T00:29:17;10.20;96.00
12604;DHT22;6367;52.508;13.284;2024-03-17T00:31:42;10.20;96.00
12604;DHT22;6367;52.508;13.284;2024-03-17T00:34:08;10.80;96.20
12604;DHT22;6367;52.508;13.284;2024-03-17T00:36:34;10.10;95.90
12604;DHT22;6367;52.508;13.284;2024-03-17T00:39:00;10.50;96.00
12604;DHT22;6367;52.508;13.284;2024-03-17T00:41:26;10.20;95.90
12604;DHT22;6367;52.508;13.284;2024-03-17T00:43:52;10.10;96.00
12604;DHT22;6367;52.508;13.284;2024-03-17T00:46:21;10.10;96.00
12604;DHT22;6367;52.508;13.284;2024-03-17T00:48:48;10.70;96.40
12604;DHT22;6367;52.508;13.284;2024-03-17T00:51:14;10.10;96.10
12604;DHT22;6367;52.508;13.284;2024-03-17T00:53:40;10.00;96.10
12604;DHT22;6367;52.508;13.284;2024-03-17T00:56:08;10.10;96.10
12604;DHT22;6367;52.508;13.284;2024-03-17T00:58:34;10.00;96.10
12604;DHT22;6367;52.508;13.284;2024-03-17T01:01:03;10.00;96.10
12604;DHT22;6367;52.508;13.284;2024-03-17T01:03:28;10.00;96.10
12604;DHT22;6367;52.508;13.284;2024-03-17T01:05:54;10.00;96.10
12604;DHT22;6367;52.508;13.284;2024-03-17T01:08:20;10.00;96.30
12604;DHT22;6367;52.508;13.284;2024-03-17T01:10:46;10.00;96.20
12604;DHT22;6367;52.508;13.284;2024-03-17T01:13:15;10.00;96.20
12604;DHT22;6367;52.508;13.284;2024-03-17T01:15:42;10.00;96.40
12604;DHT22;6367;52.508;13.284;2024-03-17T01:18:08;9.90;96.90
12604;DHT22;6367;52.508;13.284;2024-03-17T01:20:37;9.90;97.00
12604;DHT22;6367;52.508;13.284;2024-03-17T01:23:04;9.90;97.00
12604;DHT22;6367;52.508;13.284;2024-03-17T01:25:29;9.90;97.10
12604;DHT22;6367;52.508;13.284;2024-03-17T01:27:56;9.80;97.00
12604;DHT22;6367;52.508;13.284;2024-03-17T01:30:23;9.80;97.10
12604;DHT22;6367;52.508;13.284;2024-03-17T01:32:49;9.80;97.20
12604;DHT22;6367;52.508;13.284;2024-03-17T01:35:15;9.80;97.10
12604;DHT22;6367;52.508;13.284;2024-03-17T01:37:42;9.80;97.10
12604;DHT22;6367;52.508;13.284;2024-03-17T01:40:08;9.80;97.20
12604;DHT22;6367;52.508;13.284;2024-03-17T01:42:35;9.80;97.20
12604;DHT22;6367;52.508;13.284;2024-03-17T01:45:00;9.80;97.30
12604;DHT22;6367;52.508;13.284;2024-03-17T01:47:26;10.40;97.00
12604;DHT22;6367;52.508;13.284;2024-03-17T01:49:53;9.80;97.20
12604;DHT22;6367;52.508;13.284;2024-03-17T01:52:20;10.60;97.30
12604;DHT22;6367;52.508;13.284;2024-03-17T01:54:46;9.90;97.10
12604;DHT22;6367;52.508;13.284;2024-03-17T01:57:13;9.80;97.20
12604;DHT22;6367;52.508;13.284;2024-03-17T01:59:39;9.70;97.20
12604;DHT22;6367;52.508;13.284;2024-03-17T02:02:05;8.80;96.70
12604;DHT22;6367;52.508;13.284;2024-03-17T02:04:31;9.60;97.20
12604;DHT22;6367;52.508;13.284;2024-03-17T02:06:57;9.60;97.30
12604;DHT22;6367;52.508;13.284;2024-03-17T02:09:23;9.70;97.30
12604;DHT22;6367;52.508;13.284;2024-03-17T02:11:48;9.60;97.30
12604;DHT22;6367;52.508;13.284;2024-03-17T02:14:14;9.60;97.20
12604;DHT22;6367;52.508;13.284;2024-03-17T02:16:42;9.50;97.60
12604;DHT22;6367;52.508;13.284;2024-03-17T02:19:08;9.50;97.30
12604;DHT22;6367;52.508;13.284;2024-03-17T02:21:34;9.50;97.20
12604;DHT22;6367;52.508;13.284;2024-03-17T02:24:00;9.50;97.30
12604;DHT22;6367;52.508;13.284;2024-03-17T02:26:27;9.40;97.20
12604;DHT22;6367;52.508;13.284;2024-03-17T02:28:53;9.40;97.20
12604;DHT22;6367;52.508;13.284;2024-03-17T02:31:19;9.40;97.30
12604;DHT22;6367;52.508;13.284;2024-03-17T02:33:45;9.30;97.30
12604;DHT22;6367;52.508;13.284;2024-03-17T02:36:12;9.40;97.40
12604;DHT22;6367;52.508;13.284;2024-03-17T02:38:39;9.30;97.30
12604;DHT22;6367;52.508;13.284;2024-03-17T02:41:23;9.90;97.60
12604;DHT22;6367;52.508;13.284;2024-03-17T02:43:49;9.30;97.20
12604;DHT22;6367;52.508;13.284;2024-03-17T02:46:17;9.30;97.30
12604;DHT22;6367;52.508;13.284;2024-03-17T02:48:51;9.30;97.30
12604;DHT22;6367;52.508;13.284;2024-03-17T02:51:19;9.30;97.30
12604;DHT22;6367;52.508;13.284;2024-03-17T02:53:46;9.20;97.30
12604;DHT22;6367;52.508;13.284;2024-03-17T02:56:13;9.20;97.40
12604;DHT22;6367;52.508;13.284;2024-03-17T02:58:41;9.20;97.50
12604;DHT22;6367;52.508;13.284;2024-03-17T03:01:07;9.20;97.50
12604;DHT22;6367;52.508;13.284;2024-03-17T03:03:33;9.10;97.50
12604;DHT22;6367;52.508;13.284;2024-03-17T03:05:59;9.10;97.70
12604;DHT22;6367;52.508;13.284;2024-03-17T03:08:38;9.10;97.70
12604;DHT22;6367;52.508;13.284;2024-03-17T03:11:07;9.10;97.70
12604;DHT22;6367;52.508;13.284;2024-03-17T03:13:36;9.10;98.10
12604;DHT22;6367;52.508;13.284;2024-03-17T03:16:03;9.00;97.70
12604;DHT22;6367;52.508;13.284;2024-03-17T03:18:28;9.00;97.70
12604;DHT22;6367;52.508;13.284;2024-03-17T03:20:54;9.00;97.60
12604;DHT22;6367;52.508;13.284;2024-03-17T03:23:20;8.90;97.80
12604;DHT22;6367;52.508;13.284;2024-03-17T03:25:46;8.80;98.00
12604;DHT22;6367;52.508;13.284;2024-03-17T03:28:16;8.80;98.20
12604;DHT22;6367;52.508;13.284;2024-03-17T03:30:41;9.10;98.40
12604;DHT22;6367;52.508;13.284;2024-03-17T03:33:07;8.80;98.40
12604;DHT22;6367;52.508;13.284;2024-03-17T03:35:32;8.80;98.40
12604;DHT22;6367;52.508;13.284;2024-03-17T03:37:59;8.90;98.40
12604;DHT22;6367;52.508;13.284;2024-03-17T03:40:26;8.80;98.50
12604;DHT22;6367;52.508;13.284;2024-03-17T03:42:52;8.80;98.60
12604;DHT22;6367;52.508;13.284;2024-03-17T03:45:18;8.80;98.60
12604;DHT22;6367;52.508;13.284;2024-03-17T03:47:44;8.70;98.60
12604;DHT22;6367;52.508;13.284;2024-03-17T03:50:10;9.40;99.00
12604;DHT22;6367;52.508;13.284;2024-03-17T03:52:37;8.70;98.70
12604;DHT22;6367;52.508;13.284;2024-03-17T03:55:04;8.70;98.70
12604;DHT22;6367;52.508;13.284;2024-03-17T03:57:30;8.70;98.80
12604;DHT22;6367;52.508;13.284;2024-03-17T03:59:59;8.80;98.80
12604;DHT22;6367;52.508;13.284;2024-03-17T04:02:24;8.70;98.80
12604;DHT22;6367;52.508;13.284;2024-03-17T04:04:56;8.70;98.80
12604;DHT22;6367;52.508;13.284;2024-03-17T04:07:22;8.70;98.90
12604;DHT22;6367;52.508;13.284;2024-03-17T04:09:48;8.70;99.00
12604;DHT22;6367;52.508;13.284;2024-03-17T04:12:13;8.70;99.00
12604;DHT22;6367;52.508;13.284;2024-03-17T04:14:39;8.70;98.80
12604;DHT22;6367;52.508;13.284;2024-03-17T04:17:05;8.70;99.20
12604;DHT22;6367;52.508;13.284;2024-03-17T04:19:31;8.70;98.90
12604;DHT22;6367;52.508;13.284;2024-03-17T04:21:57;8.60;99.10
12604;DHT22;6367;52.508;13.284;2024-03-17T04:24:22;9.10;99.30
12604;DHT22;6367;52.508;13.284;2024-03-17T04:26:48;8.60;99.20
12604;DHT22;6367;52.508;13.284;2024-03-17T04:29:13;8.60;99.10
12604;DHT22;6367;52.508;13.284;2024-03-17T04:31:40;8.60;99.30
12604;DHT22;6367;52.508;13.284;2024-03-17T04:34:07;8.60;99.30
12604;DHT22;6367;52.508;13.284;2024-03-17T04:36:33;8.50;99.40
12604;DHT22;6367;52.508;13.284;2024-03-17T04:38:59;8.50;99.60
12604;DHT22;6367;52.508;13.284;2024-03-17T04:41:24;8.50;99.60
12604;DHT22;6367;52.508;13.284;2024-03-17T04:43:50;8.60;99.60
12604;DHT22;6367;52.508;13.284;2024-03-17T04:46:15;8.60;99.70
12604;DHT22;6367;52.508;13.284;2024-03-17T04:48:41;8.60;99.70
12604;DHT22;6367;52.508;13.284;2024-03-17T04:51:07;8.50;99.80
12604;DHT22;6367;52.508;13.284;2024-03-17T04:53:33;8.40;99.90
12604;DHT22;6367;52.508;13.284;2024-03-17T04:56:01;8.40;99.90
12604;DHT22;6367;52.508;13.284;2024-03-17T04:58:28;8.30;99.90
12604;DHT22;6367;52.508;13.284;2024-03-17T05:00:54;8.30;99.90
12604;DHT22;6367;52.508;13.284;2024-03-17T05:03:19;8.30;99.90
12604;DHT22;6367;52.508;13.284;2024-03-17T05:05:45;8.20;99.90
12604;DHT22;6367;52.508;13.284;2024-03-17T05:08:10;8.20;99.90
12604;DHT22;6367;52.508;13.284;2024-03-17T05:10:36;8.20;99.90
12604;DHT22;6367;52.508;13.284;2024-03-17T05:13:02;8.20;99.90
12604;DHT22;6367;52.508;13.284;2024-03-17T05:15:28;8.20;99.90
12604;DHT22;6367;52.508;13.284;2024-03-17T05:17:54;8.20;99.90
12604;DHT22;6367;52.508;13.284;2024-03-17T05:20:19;8.20;99.90
12604;DHT22;6367;52.508;13.284;2024-03-17T05:22:46;8.20;99.90
12604;DHT22;6367;52.508;13.284;2024-03-17T05:25:13;8.20;99.90
12604;DHT22;6367;52.508;13.284;2024-03-17T05:27:39;8.20;99.90
12604;DHT22;6367;52.508;13.284;2024-03-17T05:30:05;8.20;99.90
12604;DHT22;6367;52.508;13.284;2024-03-17T05:32:34;8.20;99.90
12604;DHT22;6367;52.508;13.284;2024-03-17T05:34:59;8.20;99.90
12604;DHT22;6367;52.508;13.284;2024-03-17T05:37:25;8.20;99.90
12604;DHT22;6367;52.508;13.284;2024-03-17T05:39:53;8.20;99.90
12604;DHT22;6367;52.508;13.284;2024-03-17T05:42:19;8.20;99.90
12604;DHT22;6367;52.508;13.284;2024-03-17T05:44:45;8.20;99.90
12604;DHT22;6367;52.508;13.284;2024-03-17T05:47:18;8.20;99.90
12604;DHT22;6367;52.508;13.284;2024-03-17T05:49:44;8.30;99.90
12604;DHT22;6367;52.508;13.284;2024-03-17T05:52:11;8.60;99.90
12604;DHT22;6367;52.508;13.284;2024-03-17T05:54:37;8.20;99.90
12604;DHT22;6367;52.508;13.284;2024-03-17T05:57:03;8.30;99.90
12604;DHT22;6367;52.508;13.284;2024-03-17T05:59:30;8.30;99.90
12604;DHT22;6367;52.508;13.284;2024-03-17T06:01:58;8.50;99.90
12604;DHT22;6367;52.508;13.284;2024-03-17T06:04:25;8.30;99.90
12604;DHT22;6367;52.508;13.284;2024-03-17T06:06:51;8.20;99.90
12604;DHT22;6367;52.508;13.284;2024-03-17T06:09:16;8.20;99.90
12604;DHT22;6367;52.508;13.284;2024-03-17T06:11:46;8.30;99.90
12604;DHT22;6367;52.508;13.284;2024-03-17T06:14:11;8.30;99.90
12604;DHT22;6367;52.508;13.284;2024-03-17T06:16:38;8.30;99.90
12604;DHT22;6367;52.508;13.284;2024-03-17T06:19:04;8.30;99.90
12604;DHT22;6367;52.508;13.284;2024-03-17T06:21:30;8.30;99.90
12604;DHT22;6367;52.508;13.284;2024-03-17T06:23:56;8.30;99.90
12604;DHT22;6367;52.508;13.284;2024-03-17T06:26:22;8.30;99.90
12604;DHT22;6367;52.508;13.284;2024-03-17T06:28:48;8.20;99.90
12604;DHT22;6367;52.508;13.284;2024-03-17T06:31:14;8.30;99.90
12604;DHT22;6367;52.508;13.284;2024-03-17T06:33:41;8.40;99.90
12604;DHT22;6367;52.508;13.284;2024-03-17T06:36:07;8.40;99.90
12604;DHT22;6367;52.508;13.284;2024-03-17T06:38:33;8.40;99.90
12604;DHT22;6367;52.508;13.284;2024-03-17T06:40:58;8.50;99.90
12604;DHT22;6367;52.508;13.284;2024-03-17T06:43:24;8.60;99.90
12604;DHT22;6367;52.508;13.284;2024-03-17T06:46:00;8.60;99.90
12604;DHT22;6367;52.508;13.284;2024-03-17T06:48:27;8.70;99.90
12604;DHT22;6367;52.508;13.284;2024-03-17T06:50:53;8.70;99.90
12604;DHT22;6367;52.508;13.284;2024-03-17T06:53:25;8.70;99.90
12604;DHT22;6367;52.508;13.284;2024-03-17T06:55:56;8.70;99.90
12604;DHT22;6367;52.508;13.284;2024-03-17T06:58:23;8.90;99.90
12604;DHT22;6367;52.508;13.284;2024-03-17T07:01:00;9.00;99.90
12604;DHT22;6367;52.508;13.284;2024-03-17T07:03:28;9.00;99.90
12604;DHT22;6367;52.508;13.284;2024-03-17T07:05:55;9.10;99.90
12604;DHT22;6367;52.508;13.284;2024-03-17T07:08:22;9.30;99.90
12604;DHT22;6367;52.508;13.284;2024-03-17T07:11:07;9.40;99.90
12604;DHT22;6367;52.508;13.284;2024-03-17T07:13:34;9.80;99.90
12604;DHT22;6367;52.508;13.284;2024-03-17T07:16:00;9.60;99.90
12604;DHT22;6367;52.508;13.284;2024-03-17T07:18:27;9.70;99.90
12604;DHT22;6367;52.508;13.284;2024-03-17T07:20:56;9.80;99.80
12604;DHT22;6367;52.508;13.284;2024-03-17T07:23:22;9.80;99.60
12604;DHT22;6367;52.508;13.284;2024-03-17T07:25:56;9.90;99.50
12604;DHT22;6367;52.508;13.284;2024-03-17T07:28:22;10.50;99.20
12604;DHT22;6367;52.508;13.284;2024-03-17T07:30:52;10.10;98.90
12604;DHT22;6367;52.508;13.284;2024-03-17T07:33:19;10.10;98.70
12604;DHT22;6367;52.508;13.284;2024-03-17T07:35:51;10.20;98.70
12604;DHT22;6367;52.508;13.284;2024-03-17T07:38:17;10.20;98.60
12604;DHT22;6367;52.508;13.284;2024-03-17T07:40:45;10.20;98.50
12604;DHT22;6367;52.508;13.284;2024-03-17T07:43:11;10.30;98.40
12604;DHT22;6367;52.508;13.284;2024-03-17T07:45:37;10.30;98.40
12604;DHT22;6367;52.508;13.284;2024-03-17T07:48:03;10.20;98.60
12604;DHT22;6367;52.508;13.284;2024-03-17T07:50:29;10.30;98.40
12604;DHT22;6367;52.508;13.284;2024-03-17T07:52:55;10.30;98.10
12604;DHT22;6367;52.508;13.284;2024-03-17T07:55:20;10.30;98.10
12604;DHT22;6367;52.508;13.284;2024-03-17T07:57:46;11.00;98.40
12604;DHT22;6367;52.508;13.284;2024-03-17T08:00:12;10.40;97.90
12604;DHT22;6367;52.508;13.284;2024-03-17T08:02:45;10.50;98.00
12604;DHT22;6367;52.508;13.284;2024-03-17T08:05:11;10.50;97.90
12604;DHT22;6367;52.508;13.284;2024-03-17T08:07:37;10.70;97.90
12604;DHT22;6367;52.508;13.284;2024-03-17T08:10:03;10.80;97.50
12604;DHT22;6367;52.508;13.284;2024-03-17T08:12:29;10.90;97.00
12604;DHT22;6367;52.508;13.284;2024-03-17T08:14:55;11.00;96.70
12604;DHT22;6367;52.508;13.284;2024-03-17T08:17:21;10.90;96.80
12604;DHT22;6367;52.508;13.284;2024-03-17T08:19:46;11.00;96.70
12604;DHT22;6367;52.508;13.284;2024-03-17T08:22:13;11.10;96.60
12604;DHT22;6367;52.508;13.284;2024-03-17T08:24:40;11.20;96.50
12604;DHT22;6367;52.508;13.284;2024-03-17T08:27:05;11.30;96.40
12604;DHT22;6367;52.508;13.284;2024-03-17T08:29:32;11.30;96.20
12604;DHT22;6367;52.508;13.284;2024-03-17T08:31:58;11.40;96.10
12604;DHT22;6367;52.508;13.284;2024-03-17T08:34:24;11.50;96.00
12604;DHT22;6367;52.508;13.284;2024-03-17T08:36:50;11.60;95.60
12604;DHT22;6367;52.508;13.284;2024-03-17T08:39:15;11.70;95.50
12604;DHT22;6367;52.508;13.284;2024-03-17T08:41:41;11.80;95.40
12604;DHT22;6367;52.508;13.284;2024-03-17T08:44:09;11.80;94.90
12604;DHT22;6367;52.508;13.284;2024-03-17T08:46:35;12.20;94.60
12604;DHT22;6367;52.508;13.284;2024-03-17T08:49:01;11.90;94.40
12604;DHT22;6367;52.508;13.284;2024-03-17T08:51:26;12.00;94.10
12604;DHT22;6367;52.508;13.284;2024-03-17T08:53:53;12.20;94.20
12604;DHT22;6367;52.508;13.284;2024-03-17T08:56:19;12.30;94.20
12604;DHT22;6367;52.508;13.284;2024-03-17T08:58:46;12.30;94.10
12604;DHT22;6367;52.508;13.284;2024-03-17T09:01:14;12.30;93.90
12604;DHT22;6367;52.508;13.284;2024-03-17T09:03:40;12.40;93.40
12604;DHT22;6367;52.508;13.284;2024-03-17T09:06:16;12.60;93.50
12604;DHT22;6367;52.508;13.284;2024-03-17T09:08:42;12.60;92.80
12604;DHT22;6367;52.508;13.284;2024-03-17T09:11:12;12.60;92.50
12604;DHT22;6367;52.508;13.284;2024-03-17T09:13:38;12.70;92.80
12604;DHT22;6367;52.508;13.284;2024-03-17T09:16:04;12.70;92.90
12604;DHT22;6367;52.508;13.284;2024-03-17T09:18:31;12.80;92.40
12604;DHT22;6367;52.508;13.284;2024-03-17T09:20:58;12.90;92.50
12604;DHT22;6367;52.508;13.284;2024-03-17T09:23:24;13.00;92.30
12604;DHT22;6367;52.508;13.284;2024-03-17T09:26:01;13.10;92.40
12604;DHT22;6367;52.508;13.284;2024-03-17T09:28:28;13.10;92.00
12604;DHT22;6367;52.508;13.284;2024-03-17T09:30:55;13.10;91.70
12604;DHT22;6367;52.508;13.284;2024-03-17T09:33:21;13.00;91.90
12604;DHT22;6367;52.508;13.284;2024-03-17T09:35:57;13.00;91.60
12604;DHT22;6367;52.508;13.284;2024-03-17T09:38:23;12.80;92.10
12604;DHT22;6367;52.508;13.284;2024-03-17T09:40:49;12.70;92.30
12604;DHT22;6367;52.508;13.284;2024-03-17T09:43:18;12.70;92.00
12604;DHT22;6367;52.508;13.284;2024-03-17T09:45:44;12.80;92.30
12604;DHT22;6367;52.508;13.284;2024-03-17T09:48:14;12.90;92.40
12604;DHT22;6367;52.508;13.284;2024-03-17T09:50:41;13.10;92.50
12604;DHT22;6367;52.508;13.284;2024-03-17T09:53:06;13.10;92.10
12604;DHT22;6367;52.508;13.284;2024-03-17T09:55:40;13.10;91.90
12604;DHT22;6367;52.508;13.284;2024-03-17T09:58:16;13.80;92.10
12604;DHT22;6367;52.508;13.284;2024-03-17T10:00:45;13.10;91.50
12604;DHT22;6367;52.508;13.284;2024-03-17T10:03:12;13.10;91.60
12604;DHT22;6367;52.508;13.284;2024-03-17T10:05:38;13.20;91.40
12604;DHT22;6367;52.508;13.284;2024-03-17T10:08:04;13.10;91.50
12604;DHT22;6367;52.508;13.284;2024-03-17T10:10:30;13.20;91.20
12604;DHT22;6367;52.508;13.284;2024-03-17T10:12:55;13.20;91.10
12604;DHT22;6367;52.508;13.284;2024-03-17T10:15:21;13.30;91.30
12604;DHT22;6367;52.508;13.284;2024-03-17T10:17:49;13.50;91.30
12604;DHT22;6367;52.508;13.284;2024-03-17T10:23:04;13.50;91.30
12604;DHT22;6367;52.508;13.284;2024-03-17T10:25:32;13.50;91.20
12604;DHT22;6367;52.508;13.284;2024-03-17T10:27:58;13.50;91.20
12604;DHT22;6367;52.508;13.284;2024-03-17T10:30:25;13.60;91.20
12604;DHT22;6367;52.508;13.284;2024-03-17T10:32:56;13.80;91.40
12604;DHT22;6367;52.508;13.284;2024-03-17T10:35:33;14.00;91.50
12604;DHT22;6367;52.508;13.284;2024-03-17T10:38:01;14.30;91.30
12604;DHT22;6367;52.508;13.284;2024-03-17T10:40:28;14.50;90.40
12604;DHT22;6367;52.508;13.284;2024-03-17T10:42:55;14.60;89.50
12604;DHT22;6367;52.508;13.284;2024-03-17T10:45:21;14.60;88.20
12604;DHT22;6367;52.508;13.284;2024-03-17T10:47:51;14.40;87.90
12604;DHT22;6367;52.508;13.284;2024-03-17T10:50:21;14.30;87.90
12604;DHT22;6367;52.508;13.284;2024-03-17T10:52:49;14.20;88.00
12604;DHT22;6367;52.508;13.284;2024-03-17T10:55:25;14.10;88.50
12604;DHT22;6367;52.508;13.284;2024-03-17T10:57:52;14.00;89.00
12604;DHT22;6367;52.508;13.284;2024-03-17T11:00:22;13.70;88.50
12604;DHT22;6367;52.508;13.284;2024-03-17T11:02:49;13.50;88.50
12604;DHT22;6367;52.508;13.284;2024-03-17T11:05:26;13.40;89.90
12604;DHT22;6367;52.508;13.284;2024-03-17T11:07:57;13.30;90.40
12604;DHT22;6367;52.508;13.284;2024-03-17T11:12:59;13.40;90.50
12604;DHT22;6367;52.508;13.284;2024-03-17T11:20:59;14.20;89.10
12604;DHT22;6367;52.508;13.284;2024-03-17T11:23:31;14.30;88.30
12604;DHT22;6367;52.508;13.284;2024-03-17T11:25:58;14.30;86.30
12604;DHT22;6367;52.508;13.284;2024-03-17T11:34:07;14.20;87.50
12604;DHT22;6367;52.508;13.284;2024-03-17T11:36:37;14.30;86.80
12604;DHT22;6367;52.508;13.284;2024-03-17T11:39:10;14.30;85.10
12604;DHT22;6367;52.508;13.284;2024-03-17T11:41:53;14.10;85.10
12604;DHT22;6367;52.508;13.284;2024-03-17T11:49:23;13.80;84.70
12604;DHT22;6367;52.508;13.284;2024-03-17T11:51:52;13.60;84.60
12604;DHT22;6367;52.508;13.284;2024-03-17T11:54:42;13.50;85.60
12604;DHT22;6367;52.508;13.284;2024-03-17T11:57:07;13.50;85.40
12604;DHT22;6367;52.508;13.284;2024-03-17T11:59:34;13.50;82.70
12604;DHT22;6367;52.508;13.284;2024-03-17T12:02:00;13.50;83.40
12604;DHT22;6367;52.508;13.284;2024-03-17T12:04:28;13.70;83.00
12604;DHT22;6367;52.508;13.284;2024-03-17T12:06:58;13.90;82.20
12604;DHT22;6367;52.508;13.284;2024-03-17T12:09:31;14.00;83.60
12604;DHT22;6367;52.508;13.284;2024-03-17T12:12:04;14.10;84.70
12604;DHT22;6367;52.508;13.284;2024-03-17T12:14:31;14.10;83.40
12604;DHT22;6367;52.508;13.284;2024-03-17T12:17:23;14.10;82.00
12604;DHT22;6367;52.508;13.284;2024-03-17T12:19:50;13.90;81.30
12604;DHT22;6367;52.508;13.284;2024-03-17T12:22:20;13.80;80.60
12604;DHT22;6367;52.508;13.284;2024-03-17T12:24:48;13.80;79.90
12604;DHT22;6367;52.508;13.284;2024-03-17T12:27:25;13.70;81.20
12604;DHT22;6367;52.508;13.284;2024-03-17T12:29:52;13.80;81.80
12604;DHT22;6367;52.508;13.284;2024-03-17T12:32:24;14.00;82.00
12604;DHT22;6367;52.508;13.284;2024-03-17T12:34:55;14.20;81.50
12604;DHT22;6367;52.508;13.284;2024-03-17T12:37:25;14.30;81.10
12604;DHT22;6367;52.508;13.284;2024-03-17T12:39:56;14.30;80.90
12604;DHT22;6367;52.508;13.284;2024-03-17T12:42:25;14.30;81.10
12604;DHT22;6367;52.508;13.284;2024-03-17T12:44:53;14.40;81.50
12604;DHT22;6367;52.508;13.284;2024-03-17T12:47:26;14.30;80.90
12604;DHT22;6367;52.508;13.284;2024-03-17T12:49:56;14.50;81.40
12604;DHT22;6367;52.508;13.284;2024-03-17T12:52:27;14.60;81.60
12604;DHT22;6367;52.508;13.284;2024-03-17T12:55:03;14.80;80.60
12604;DHT22;6367;52.508;13.284;2024-03-17T12:57:50;14.80;80.10
12604;DHT22;6367;52.508;13.284;2024-03-17T13:00:35;14.80;79.80
12604;DHT22;6367;52.508;13.284;2024-03-17T13:03:05;14.70;79.30
12604;DHT22;6367;52.508;13.284;2024-03-17T13:05:34;14.70;78.50
12604;DHT22;6367;52.508;13.284;2024-03-17T13:08:00;14.70;78.60
12604;DHT22;6367;52.508;13.284;2024-03-17T13:10:28;14.70;78.60
12604;DHT22;6367;52.508;13.284;2024-03-17T13:13:03;14.80;78.70
12604;DHT22;6367;52.508;13.284;2024-03-17T13:15:30;14.90;78.60
12604;DHT22;6367;52.508;13.284;2024-03-17T13:17:56;14.80;78.50
12604;DHT22;6367;52.508;13.284;2024-03-17T13:20:22;14.80;79.30
12604;DHT22;6367;52.508;13.284;2024-03-17T13:22:48;14.80;80.60
12604;DHT22;6367;52.508;13.284;2024-03-17T13:25:18;14.80;79.30
12604;DHT22;6367;52.508;13.284;2024-03-17T13:27:47;14.50;80.60
12604;DHT22;6367;52.508;13.284;2024-03-17T13:30:15;14.60;79.40
12604;DHT22;6367;52.508;13.284;2024-03-17T13:32:41;14.50;79.10
12604;DHT22;6367;52.508;13.284;2024-03-17T13:35:15;14.40;79.10
12604;DHT22;6367;52.508;13.284;2024-03-17T13:37:43;14.40;79.50
12604;DHT22;6367;52.508;13.284;2024-03-17T13:40:10;14.40;80.60
12604;DHT22;6367;52.508;13.284;2024-03-17T13:42:38;14.50;80.30
12604;DHT22;6367;52.508;13.284;2024-03-17T13:45:05;14.70;79.60
12604;DHT22;6367;52.508;13.284;2024-03-17T13:47:32;14.80;77.80
12604;DHT22;6367;52.508;13.284;2024-03-17T13:49:58;15.00;78.10
12604;DHT22;6367;52.508;13.284;2024-03-17T13:52:24;15.00;76.80
12604;DHT22;6367;52.508;13.284;2024-03-17T13:54:49;15.00;76.60
12604;DHT22;6367;52.508;13.284;2024-03-17T13:57:15;15.00;77.30
12604;DHT22;6367;52.508;13.284;2024-03-17T13:59:42;15.00;77.60
12604;DHT22;6367;52.508;13.284;2024-03-17T14:02:12;14.90;77.50
12604;DHT22;6367;52.508;13.284;2024-03-17T14:04:38;14.90;77.70
12604;DHT22;6367;52.508;13.284;2024-03-17T14:07:04;14.90;78.00
12604;DHT22;6367;52.508;13.284;2024-03-17T14:09:30;14.80;78.00
12604;DHT22;6367;52.508;13.284;2024-03-17T14:11:56;14.90;76.60
12604;DHT22;6367;52.508;13.284;2024-03-17T14:14:23;14.80;77.40
12604;DHT22;6367;52.508;13.284;2024-03-17T14:16:48;14.80;76.90
12604;DHT22;6367;52.508;13.284;2024-03-17T14:19:14;14.90;76.90
12604;DHT22;6367;52.508;13.284;2024-03-17T14:21:40;14.80;75.50
12604;DHT22;6367;52.508;13.284;2024-03-17T14:24:06;14.70;76.20
12604;DHT22;6367;52.508;13.284;2024-03-17T14:26:34;14.70;75.60
12604;DHT22;6367;52.508;13.284;2024-03-17T14:29:02;14.70;75.80
12604;DHT22;6367;52.508;13.284;2024-03-17T14:31:34;14.60;75.90
12604;DHT22;6367;52.508;13.284;2024-03-17T14:34:05;14.60;75.80
12604;DHT22;6367;52.508;13.284;2024-03-17T14:36:31;14.60;76.10
12604;DHT22;6367;52.508;13.284;2024-03-17T14:38:59;14.50;75.70
12604;DHT22;6367;52.508;13.284;2024-03-17T14:41:27;14.50;75.40
12604;DHT22;6367;52.508;13.284;2024-03-17T14:43:52;14.40;75.80
12604;DHT22;6367;52.508;13.284;2024-03-17T14:46:18;14.30;76.00
12604;DHT22;6367;52.508;13.284;2024-03-17T14:48:44;14.30;75.80
12604;DHT22;6367;52.508;13.284;2024-03-17T14:51:10;14.30;76.20
12604;DHT22;6367;52.508;13.284;2024-03-17T14:53:36;14.40;76.00
12604;DHT22;6367;52.508;13.284;2024-03-17T14:56:08;14.30;75.90
12604;DHT22;6367;52.508;13.284;2024-03-17T14:58:34;14.30;75.90
12604;DHT22;6367;52.508;13.284;2024-03-17T15:00:59;14.20;74.60
12604;DHT22;6367;52.508;13.284;2024-03-17T15:03:25;14.20;74.80
12604;DHT22;6367;52.508;13.284;2024-03-17T15:05:51;14.00;75.10
12604;DHT22;6367;52.508;13.284;2024-03-17T15:08:17;13.90;75.60
12604;DHT22;6367;52.508;13.284;2024-03-17T15:10:44;13.90;75.90
12604;DHT22;6367;52.508;13.284;2024-03-17T15:13:10;13.90;76.10
12604;DHT22;6367;52.508;13.284;2024-03-17T15:15:36;13.80;76.10
12604;DHT22;6367;52.508;13.284;2024-03-17T15:18:03;13.80;76.80
12604;DHT22;6367;52.508;13.284;2024-03-17T15:20:29;13.70;77.30
12604;DHT22;6367;52.508;13.284;2024-03-17T15:22:55;13.80;77.00
12604;DHT22;6367;52.508;13.284;2024-03-17T15:25:20;13.80;76.80
12604;DHT22;6367;52.508;13.284;2024-03-17T15:27:49;13.80;77.30
12604;DHT22;6367;52.508;13.284;2024-03-17T15:30:16;13.70;77.60
12604;DHT22;6367;52.508;13.284;2024-03-17T15:32:45;13.70;77.50
12604;DHT22;6367;52.508;13.284;2024-03-17T15:35:11;13.70;77.20
12604;DHT22;6367;52.508;13.284;2024-03-17T15:37:42;13.70;76.90
12604;DHT22;6367;52.508;13.284;2024-03-17T15:40:09;13.60;76.90
12604;DHT22;6367;52.508;13.284;2024-03-17T15:42:53;13.50;77.00
12604;DHT22;6367;52.508;13.284;2024-03-17T15:45:19;13.50;77.10
12604;DHT22;6367;52.508;13.284;2024-03-17T15:47:46;13.50;77.30
12604;DHT22;6367;52.508;13.284;2024-03-17T15:50:12;13.50;77.70
12604;DHT22;6367;52.508;13.284;2024-03-17T15:52:41;13.40;78.00
12604;DHT22;6367;52.508;13.284;2024-03-17T15:55:08;13.30;77.60
12604;DHT22;6367;52.508;13.284;2024-03-17T15:57:35;13.30;78.10
12604;DHT22;6367;52.508;13.284;2024-03-17T16:00:01;13.20;78.50